Terminal Aerodrome Forecast
Issued by NWS

Home | Current Version | Previous Version | Graphics & Text | Print | Product List | Glossary On
Versions: 1 2 3 4 5 6 7 8 9 10 11 12
000
FTUS43 KOAX 041742
TAFCDR
TAF
KCDR 041742Z 0418/0518 18007KT P6SM BKN100
     FM042000 15012KT P6SM VCTS SCT050CB
      TEMPO 0420/0424 VRB20G30KT 5SM -TSRA
     FM050300 VRB05KT P6SM SCT100=

USA.gov is the U.S. government's official web portal to all federal, state and local government web resources and services.